Time;durP1;ratioP1;P1;durP2;ratioP2;P2;SDS_P1;SDS_P2;PMS_P1;PMS_P2;Temp;Humidity;BMP_temperature;BMP_pressure;BME280_temperature;BME280_humidity;BME280_pressure;Samples;Min_cycle;Max_cycle;Signal;HPM_P1;HPM_P2
2022/12/24 00:01:33;;;;;;;35.85;6.55;;;11.80;99.90;;;;;;5023594;28;20535;-70
2022/12/24 00:03:59;;;;;;;40.10;7.28;;;11.80;99.90;;;;;;5027955;28;20033;-70
2022/12/24 00:06:24;;;;;;;38.40;6.75;;;11.70;99.90;;;;;;5025825;28;20129;-70
2022/12/24 00:08:51;;;;;;;37.85;6.53;;;11.90;99.90;;;;;;5027377;28;20041;-69
2022/12/24 00:11:18;;;;;;;39.83;6.93;;;11.80;99.90;;;;;;5024049;28;20017;-69
2022/12/24 00:13:43;;;;;;;44.10;7.22;;;11.70;99.90;;;;;;5027006;28;20029;-70
2022/12/24 00:16:10;;;;;;;40.13;6.85;;;11.80;99.90;;;;;;5026927;28;20083;-69
2022/12/24 00:18:36;;;;;;;32.58;6.13;;;11.80;99.90;;;;;;5025857;28;20041;-70
2022/12/24 00:21:02;;;;;;;33.67;6.80;;;11.80;99.90;;;;;;5024314;28;20102;-70
2022/12/24 00:23:28;;;;;;;36.60;7.10;;;11.80;99.90;;;;;;5024149;28;20025;-69
2022/12/24 00:25:54;;;;;;;37.28;7.10;;;11.80;99.90;;;;;;5024013;28;20025;-70
2022/12/24 00:28:20;;;;;;;42.55;7.40;;;11.70;99.90;;;;;;5022980;28;20041;-70
2022/12/24 00:30:46;;;;;;;45.63;6.97;;;11.70;99.90;;;;;;5026568;28;20025;-70
2022/12/24 00:33:12;;;;;;;35.22;6.22;;;11.70;99.90;;;;;;5027159;28;20036;-69
2022/12/24 00:35:38;;;;;;;44.88;6.75;;;11.70;99.90;;;;;;5026695;28;20466;-69
2022/12/24 00:38:04;;;;;;;35.90;6.43;;;11.80;99.90;;;;;;5027619;28;20075;-69
2022/12/24 00:40:31;;;;;;;34.70;7.07;;;11.90;99.90;;;;;;5024383;28;20022;-69
2022/12/24 00:42:56;;;;;;;43.40;7.60;;;11.80;99.90;;;;;;5021761;28;20037;-70
2022/12/24 00:45:22;;;;;;;47.08;6.65;;;11.80;99.90;;;;;;5024458;28;20038;-70
2022/12/24 00:47:48;;;;;;;48.03;6.75;;;11.80;99.90;;;;;;5028003;28;20192;-71
2022/12/24 00:50:14;;;;;;;49.30;7.70;;;11.70;99.90;;;;;;5021270;28;20528;-70
2022/12/24 00:52:39;;;;;;;49.88;7.72;;;11.80;99.90;;;;;;5025527;28;20339;-69
2022/12/24 00:55:05;;;;;;;48.28;8.00;;;11.80;99.90;;;;;;5026356;28;20065;-70
2022/12/24 00:57:31;;;;;;;39.97;7.97;;;11.80;99.90;;;;;;5025766;28;20470;-70
2022/12/24 00:59:57;;;;;;;53.47;8.27;;;11.80;99.90;;;;;;5026731;28;20037;-69
2022/12/24 01:02:22;;;;;;;40.60;6.72;;;11.80;99.90;;;;;;5021670;28;20034;-70
2022/12/24 01:07:33;;;;;;;39.78;6.50;;;11.70;99.90;;;;;;5026889;28;20036;-69
2022/12/24 01:09:58;;;;;;;45.33;6.68;;;11.70;99.90;;;;;;5020225;28;20038;-69
2022/12/24 01:12:24;;;;;;;45.13;7.43;;;11.70;99.90;;;;;;5025058;28;20060;-69
2022/12/24 01:14:50;;;;;;;43.85;6.65;;;11.70;99.90;;;;;;5024632;28;20038;-69
2022/12/24 01:17:15;;;;;;;43.47;7.13;;;11.60;99.90;;;;;;5024437;28;20025;-70
2022/12/24 01:19:41;;;;;;;45.10;7.28;;;11.60;99.90;;;;;;5022861;28;20067;-69
2022/12/24 01:22:07;;;;;;;37.50;6.85;;;11.60;99.90;;;;;;5025794;28;20060;-69
2022/12/24 01:24:32;;;;;;;33.17;6.30;;;11.60;99.90;;;;;;5025371;28;20033;-69
2022/12/24 01:26:58;;;;;;;48.38;7.43;;;11.60;99.90;;;;;;5026967;28;20041;-69
2022/12/24 01:29:24;;;;;;;41.88;7.07;;;11.70;99.90;;;;;;5026391;28;20045;-69
2022/12/24 01:31:49;;;;;;;34.53;6.60;;;11.70;99.90;;;;;;5022467;28;20029;-69
2022/12/24 01:34:15;;;;;;;38.67;7.25;;;11.60;99.90;;;;;;5025235;28;20071;-69
2022/12/24 01:36:40;;;;;;;45.05;7.88;;;11.60;99.90;;;;;;5024919;28;20108;-69
2022/12/24 01:39:06;;;;;;;44.25;7.50;;;11.50;99.90;;;;;;5027495;28;20394;-69
2022/12/24 01:44:27;;;;;;;38.10;6.60;;;11.60;99.90;;;;;;5026070;28;20044;-68
2022/12/24 01:47:07;;;;;;;34.72;6.38;;;11.60;99.90;;;;;;5027323;28;20038;-69
2022/12/24 01:49:32;;;;;;;40.58;6.78;;;11.70;99.90;;;;;;5058676;28;20034;-69
2022/12/24 01:52:05;;;;;;;36.08;7.38;;;11.70;99.90;;;;;;5029501;28;20025;-69
2022/12/24 01:54:54;;;;;;;42.38;6.65;;;11.70;99.90;;;;;;5028526;28;20049;-69
2022/12/24 01:57:26;;;;;;;42.92;6.40;;;11.70;99.90;;;;;;5029583;28;20029;-69
2022/12/24 01:59:57;;;;;;;38.55;6.25;;;11.60;99.90;;;;;;5028289;28;20121;-70
2022/12/24 02:02:24;;;;;;;43.05;7.65;;;11.70;99.90;;;;;;5023097;28;20508;-69
2022/12/24 02:04:55;;;;;;;42.42;6.88;;;11.70;99.90;;;;;;5028514;28;20017;-69
2022/12/24 02:07:21;;;;;;;42.70;5.88;;;11.70;99.90;;;;;;5028367;28;20041;-69
2022/12/24 02:09:50;;;;;;;42.20;7.50;;;11.80;99.90;;;;;;5030582;28;20029;-69
2022/12/24 02:12:16;;;;;;;43.88;7.32;;;11.80;99.90;;;;;;5025869;28;20055;-69
2022/12/24 02:14:42;;;;;;;36.95;7.43;;;11.80;99.90;;;;;;5029555;28;20032;-69
2022/12/24 02:17:25;;;;;;;41.45;6.22;;;11.70;99.90;;;;;;5031234;28;20030;-69
2022/12/24 02:20:19;;;;;;;39.97;6.30;;;11.80;99.90;;;;;;5031353;28;20112;-70
2022/12/24 02:22:57;;;;;;;43.13;7.68;;;11.80;99.90;;;;;;5031201;28;20486;-68
2022/12/24 02:25:48;;;;;;;32.45;5.80;;;11.80;99.90;;;;;;5023665;28;20116;-69
2022/12/24 02:28:51;;;;;;;36.53;6.40;;;11.80;99.90;;;;;;5032310;28;20052;-69
2022/12/24 02:31:28;;;;;;;34.58;5.95;;;11.80;99.90;;;;;;5028585;28;20049;-69
2022/12/24 02:34:00;;;;;;;32.72;5.32;;;11.80;99.90;;;;;;5030750;28;20017;-68
2022/12/24 02:37:14;;;;;;;32.90;6.20;;;11.80;99.90;;;;;;5030633;28;20034;-69
2022/12/24 02:39:45;;;;;;;35.10;5.13;;;11.80;99.90;;;;;;5032489;28;20040;-69
2022/12/24 02:42:14;;;;;;;37.20;5.43;;;11.80;99.90;;;;;;5028334;28;20387;-68
2022/12/24 02:45:01;;;;;;;27.05;5.25;;;11.80;99.90;;;;;;5030659;28;20034;-69
2022/12/24 02:47:28;;;;;;;28.20;4.72;;;11.90;99.90;;;;;;5023302;28;20026;-68
2022/12/24 02:49:54;;;;;;;28.42;5.40;;;11.90;99.90;;;;;;5028530;28;20044;-70
2022/12/24 02:52:37;;;;;;;33.67;4.93;;;11.80;99.90;;;;;;5026294;28;20482;-69
2022/12/24 02:55:38;;;;;;;30.00;5.53;;;11.80;99.90;;;;;;5033053;28;20444;-69
2022/12/24 02:58:13;;;;;;;27.08;5.30;;;11.80;99.90;;;;;;5025001;28;20101;-70
2022/12/24 03:00:54;;;;;;;23.58;4.82;;;11.80;99.90;;;;;;5029267;28;20032;-70
2022/12/24 03:03:29;;;;;;;24.90;4.18;;;11.80;99.90;;;;;;5022805;28;20028;-70
2022/12/24 03:06:06;;;;;;;21.98;4.72;;;11.80;99.90;;;;;;5032548;28;20057;-70
2022/12/24 03:08:34;;;;;;;22.42;4.90;;;11.80;99.90;;;;;;5033346;28;20052;-70
2022/12/24 03:11:06;;;;;;;23.25;3.83;;;11.80;99.90;;;;;;5027988;28;20068;-70
2022/12/24 03:13:31;;;;;;;27.13;4.72;;;11.80;99.90;;;;;;5028473;28;20033;-70
2022/12/24 03:15:57;;;;;;;30.13;4.53;;;11.70;99.90;;;;;;5025068;28;20029;-70
2022/12/24 03:18:25;;;;;;;27.27;4.95;;;11.80;99.90;;;;;;5025776;28;20057;-70
2022/12/24 03:21:04;;;;;;;23.25;3.80;;;11.80;99.90;;;;;;5031454;28;20018;-70
2022/12/24 03:23:30;;;;;;;20.13;4.05;;;11.80;99.90;;;;;;5030371;28;20385;-70
2022/12/24 03:25:56;;;;;;;33.58;5.53;;;11.80;99.90;;;;;;5029083;28;20021;-70
2022/12/24 03:28:26;;;;;;;22.52;4.20;;;11.90;99.90;;;;;;5062739;28;20429;-70
2022/12/24 03:30:51;;;;;;;33.85;5.57;;;11.80;99.90;;;;;;5027906;28;20029;-71
2022/12/24 03:33:18;;;;;;;31.75;4.68;;;11.80;99.90;;;;;;5030320;28;20028;-70
2022/12/24 03:35:44;;;;;;;30.02;4.43;;;11.80;99.90;;;;;;5031788;28;20096;-71
2022/12/24 03:38:10;;;;;;;28.50;4.65;;;11.80;99.90;;;;;;5031167;28;20018;-71
2022/12/24 03:40:35;;;;;;;33.08;5.50;;;11.80;99.90;;;;;;5033862;28;20017;-70
2022/12/24 03:43:01;;;;;;;33.83;5.00;;;11.70;99.90;;;;;;5029523;28;20026;-70
2022/12/24 03:45:26;;;;;;;26.88;4.40;;;11.70;99.90;;;;;;5021448;28;20033;-70
2022/12/24 03:47:52;;;;;;;31.10;5.75;;;11.70;99.90;;;;;;5030690;28;20138;-70
2022/12/24 03:50:18;;;;;;;28.40;4.95;;;11.70;99.90;;;;;;5031127;28;20033;-70
2022/12/24 03:52:43;;;;;;;39.03;6.00;;;11.70;99.90;;;;;;5032481;28;20162;-70
2022/12/24 03:55:09;;;;;;;39.65;5.43;;;11.70;99.90;;;;;;5025547;28;20909;-71
2022/12/24 03:57:34;;;;;;;34.35;5.72;;;11.80;99.90;;;;;;5030280;28;20034;-70
2022/12/24 04:00:00;;;;;;;34.08;5.50;;;11.70;99.90;;;;;;5025985;28;20556;-71
2022/12/24 04:02:26;;;;;;;32.33;5.90;;;11.70;99.90;;;;;;5025915;28;20080;-70
2022/12/24 04:04:51;;;;;;;33.10;6.53;;;11.70;99.90;;;;;;5030416;28;20024;-70
2022/12/24 04:07:17;;;;;;;38.80;6.20;;;11.70;99.90;;;;;;5025838;28;20028;-70
2022/12/24 04:09:42;;;;;;;33.95;6.95;;;11.60;99.90;;;;;;5029696;28;20405;-71
2022/12/24 04:12:08;;;;;;;30.30;6.07;;;11.60;99.90;;;;;;5027937;28;20026;-70
2022/12/24 04:14:33;;;;;;;31.92;7.32;;;11.60;99.90;;;;;;5025091;28;20033;-71
2022/12/24 04:16:59;;;;;;;26.23;5.00;;;11.70;99.90;;;;;;5028072;28;20478;-71
2022/12/24 04:19:25;;;;;;;34.55;7.18;;;11.70;99.90;;;;;;5032021;28;20514;-71
2022/12/24 04:21:50;;;;;;;37.03;6.13;;;11.70;99.90;;;;;;5026664;28;20023;-70
2022/12/24 04:24:16;;;;;;;42.40;6.10;;;11.70;99.90;;;;;;5026732;28;20036;-71
2022/12/24 04:26:41;;;;;;;30.67;6.07;;;11.70;99.90;;;;;;5016474;28;20091;-70
2022/12/24 04:29:07;;;;;;;26.65;5.85;;;11.60;99.90;;;;;;5023854;28;20502;-71
2022/12/24 04:31:32;;;;;;;27.80;6.22;;;11.60;99.90;;;;;;5023961;28;20038;-71
2022/12/24 04:33:58;;;;;;;37.85;6.00;;;11.60;99.90;;;;;;5054229;28;20490;-71
2022/12/24 04:36:24;;;;;;;43.35;6.18;;;11.70;99.90;;;;;;5018139;28;20030;-70
2022/12/24 04:38:49;;;;;;;32.40;7.28;;;11.60;99.90;;;;;;5022831;28;20437;-71
2022/12/24 04:41:19;;;;;;;34.75;7.18;;;11.60;99.90;;;;;;5024404;28;20072;-71
2022/12/24 04:43:45;;;;;;;34.95;6.68;;;11.60;99.90;;;;;;5016651;28;20050;-70
2022/12/24 04:46:19;;;;;;;33.58;6.10;;;11.60;99.90;;;;;;5027026;28;20525;-71
2022/12/24 04:48:49;;;;;;;35.20;6.60;;;11.60;99.90;;;;;;5016143;28;20500;-71
2022/12/24 04:51:16;;;;;;;36.45;6.30;;;11.60;99.90;;;;;;5022764;28;20455;-70
2022/12/24 04:53:43;;;;;;;32.53;5.75;;;11.60;99.90;;;;;;5030554;28;20087;-71
2022/12/24 04:56:18;;;;;;;34.83;6.38;;;11.50;99.90;;;;;;5022607;28;20053;-71
2022/12/24 04:58:44;;;;;;;36.90;5.85;;;11.60;99.90;;;;;;5024434;28;20513;-72
2022/12/24 05:01:17;;;;;;;32.67;6.40;;;11.60;99.90;;;;;;5027567;28;20045;-71
2022/12/24 05:03:43;;;;;;;30.77;6.95;;;11.60;99.90;;;;;;5025573;28;20555;-71
2022/12/24 05:06:15;;;;;;;30.73;5.97;;;11.60;99.90;;;;;;5018264;28;20060;-72
2022/12/24 05:08:42;;;;;;;22.77;5.38;;;11.50;99.90;;;;;;5027089;28;20489;-71
2022/12/24 05:11:08;;;;;;;34.45;6.57;;;11.50;99.90;;;;;;5020951;28;20028;-72
2022/12/24 05:13:34;;;;;;;37.03;6.32;;;11.60;99.90;;;;;;5023657;28;20368;-71
2022/12/24 05:16:00;;;;;;;20.75;5.53;;;11.60;99.90;;;;;;5026380;28;20030;-71
2022/12/24 05:18:25;;;;;;;36.63;6.68;;;11.60;99.90;;;;;;5033787;28;20545;-71
2022/12/24 05:20:51;;;;;;;33.92;6.15;;;11.50;99.90;;;;;;5031467;28;20026;-72
2022/12/24 05:26:25;;;;;;;32.53;5.85;;;11.60;99.90;;;;;;5025625;28;20092;-70
2022/12/24 05:28:53;;;;;;;26.10;6.07;;;11.50;99.90;;;;;;5024129;28;20068;-73
2022/12/24 05:31:20;;;;;;;33.42;5.95;;;11.50;99.90;;;;;;5020264;28;20060;-71
2022/12/24 05:33:46;;;;;;;25.80;5.95;;;11.50;99.90;;;;;;5026014;28;20030;-70
2022/12/24 05:36:12;;;;;;;34.97;6.85;;;11.60;99.90;;;;;;5025417;28;20463;-71
2022/12/24 05:38:38;;;;;;;31.48;5.95;;;11.60;99.90;;;;;;5030140;28;20040;-71
2022/12/24 05:41:04;;;;;;;35.83;6.60;;;11.50;99.90;;;;;;5021858;28;20495;-70
2022/12/24 05:43:30;;;;;;;32.10;6.07;;;11.50;99.90;;;;;;5023423;28;20532;-71
2022/12/24 05:46:06;;;;;;;32.60;6.63;;;11.40;99.90;;;;;;5026771;28;20034;-71
2022/12/24 05:48:33;;;;;;;38.97;6.70;;;11.40;99.90;;;;;;5029066;28;20058;-71
2022/12/24 05:50:58;;;;;;;34.60;5.97;;;11.40;99.90;;;;;;5026651;28;20021;-72
2022/12/24 05:53:24;;;;;;;29.52;5.60;;;11.40;99.90;;;;;;5030229;28;20120;-70
2022/12/24 05:55:50;;;;;;;33.65;6.47;;;11.40;99.90;;;;;;5022973;28;20041;-71
2022/12/24 05:58:16;;;;;;;30.75;7.22;;;11.30;99.90;;;;;;5028886;28;20014;-71
2022/12/24 06:00:42;;;;;;;41.28;7.15;;;11.30;99.90;;;;;;5024693;28;20030;-70
2022/12/24 06:03:08;;;;;;;25.38;5.43;;;11.40;99.90;;;;;;5028555;28;20034;-71
2022/12/24 06:05:33;;;;;;;32.50;6.40;;;11.30;99.90;;;;;;5021689;28;20025;-71
2022/12/24 06:07:59;;;;;;;32.95;6.47;;;11.40;99.90;;;;;;5027374;28;20080;-70
2022/12/24 06:10:24;;;;;;;35.60;6.93;;;11.30;99.90;;;;;;5023968;28;20033;-71
2022/12/24 06:12:50;;;;;;;42.25;7.00;;;11.30;99.90;;;;;;5027548;28;20030;-71
2022/12/24 06:15:16;;;;;;;38.42;6.68;;;11.30;99.90;;;;;;5024812;28;20033;-71
2022/12/24 06:17:41;;;;;;;41.78;8.20;;;11.30;99.90;;;;;;5022605;28;20029;-70
2022/12/24 06:20:08;;;;;;;28.02;6.03;;;11.30;99.90;;;;;;5026837;28;20120;-70
2022/12/24 06:22:33;;;;;;;35.35;6.38;;;11.30;99.90;;;;;;5024339;28;20053;-71
2022/12/24 06:24:59;;;;;;;37.70;7.20;;;11.40;99.90;;;;;;5032497;28;20446;-70
2022/12/24 06:27:25;;;;;;;44.88;7.63;;;11.40;99.90;;;;;;5024601;28;20117;-71
2022/12/24 06:29:50;;;;;;;42.00;7.90;;;11.40;99.90;;;;;;5027455;28;20121;-71
2022/12/24 06:32:16;;;;;;;32.20;6.68;;;11.40;99.90;;;;;;5027367;28;20022;-71
2022/12/24 06:34:41;;;;;;;34.28;6.80;;;11.50;99.90;;;;;;5028044;28;20474;-70
2022/12/24 06:37:07;;;;;;;38.60;6.43;;;11.50;99.90;;;;;;5025805;28;20021;-70
2022/12/24 06:39:33;;;;;;;38.75;7.25;;;11.50;99.90;;;;;;5028743;28;20025;-72
2022/12/24 06:41:58;;;;;;;38.28;6.50;;;11.50;99.90;;;;;;5028511;28;20079;-71
2022/12/24 06:44:25;;;;;;;40.38;7.18;;;11.50;99.90;;;;;;5024228;28;20033;-73
2022/12/24 06:46:50;;;;;;;43.30;7.03;;;11.50;99.90;;;;;;5023538;28;20034;-71
2022/12/24 06:49:16;;;;;;;39.60;7.28;;;11.50;99.90;;;;;;5019966;28;20544;-70
2022/12/24 06:51:42;;;;;;;37.05;7.40;;;11.50;99.90;;;;;;5026671;28;20034;-70
2022/12/24 06:54:07;;;;;;;43.90;7.05;;;11.50;99.90;;;;;;5034723;28;20021;-71
2022/12/24 06:56:33;;;;;;;39.17;7.38;;;11.50;99.90;;;;;;5028123;28;20495;-71
2022/12/24 06:58:59;;;;;;;43.63;8.02;;;11.50;99.90;;;;;;5027823;28;20151;-71
2022/12/24 07:01:24;;;;;;;35.97;7.22;;;11.50;99.90;;;;;;5031819;28;20033;-71
2022/12/24 07:03:50;;;;;;;43.55;7.88;;;11.60;99.90;;;;;;5025129;28;20031;-70
2022/12/24 07:06:23;;;;;;;50.38;8.57;;;11.50;99.90;;;;;;5023020;28;20330;-71
2022/12/24 07:08:49;;;;;;;37.70;6.72;;;11.60;99.90;;;;;;5025591;28;20045;-71
2022/12/24 07:11:15;;;;;;;37.42;7.15;;;11.50;99.90;;;;;;5029966;28;20029;-71
2022/12/24 07:13:40;;;;;;;42.35;8.20;;;11.50;99.90;;;;;;5026664;28;20469;-72
2022/12/24 07:16:06;;;;;;;37.25;8.20;;;11.50;99.90;;;;;;5030439;28;20095;-70
2022/12/24 07:18:32;;;;;;;46.03;7.07;;;11.50;99.90;;;;;;5026170;28;20399;-72
2022/12/24 07:20:58;;;;;;;38.30;6.22;;;11.50;99.90;;;;;;5024255;28;20026;-71
2022/12/24 07:23:24;;;;;;;44.75;6.50;;;11.60;99.90;;;;;;5022864;28;20069;-71
2022/12/24 07:25:50;;;;;;;40.00;6.57;;;11.50;99.90;;;;;;5028750;28;20473;-71
2022/12/24 07:28:16;;;;;;;35.15;6.43;;;11.60;99.90;;;;;;5028260;28;20026;-71
2022/12/24 07:30:41;;;;;;;36.72;6.68;;;11.50;99.90;;;;;;5021711;28;20036;-73
2022/12/24 07:33:07;;;;;;;39.33;7.50;;;11.60;99.90;;;;;;5022233;28;20470;-70
2022/12/24 07:35:33;;;;;;;37.53;6.50;;;11.60;99.90;;;;;;5031399;28;20078;-70
2022/12/24 07:37:58;;;;;;;39.53;8.35;;;11.50;99.90;;;;;;5025182;28;20033;-70
2022/12/24 07:40:24;;;;;;;38.75;6.43;;;11.60;99.90;;;;;;5024635;28;20026;-70
2022/12/24 07:42:50;;;;;;;39.83;6.90;;;11.60;99.90;;;;;;5028053;28;20501;-70
2022/12/24 07:45:15;;;;;;;42.38;6.65;;;11.60;99.90;;;;;;5028963;28;20583;-70
2022/12/24 07:47:41;;;;;;;43.03;7.00;;;11.60;99.90;;;;;;5019732;28;20034;-70
2022/12/24 07:50:07;;;;;;;37.00;6.95;;;11.50;99.90;;;;;;5016517;28;20029;-70
2022/12/24 07:52:33;;;;;;;38.20;6.18;;;11.50;99.90;;;;;;5024316;28;20104;-70
2022/12/24 07:54:58;;;;;;;36.67;7.30;;;11.50;99.90;;;;;;5022557;28;20518;-71
2022/12/24 07:57:24;;;;;;;39.50;7.57;;;11.50;99.90;;;;;;5024736;28;20087;-69
2022/12/24 07:59:49;;;;;;;38.17;6.63;;;11.50;99.90;;;;;;5026619;28;20204;-70
2022/12/24 08:02:15;;;;;;;37.78;7.90;;;11.50;99.90;;;;;;5023769;28;20108;-70
2022/12/24 08:04:41;;;;;;;41.15;7.00;;;11.60;99.90;;;;;;5025551;28;20421;-70
2022/12/24 08:07:07;;;;;;;37.80;6.97;;;11.60;99.90;;;;;;5024509;28;20029;-71
2022/12/24 08:09:33;;;;;;;42.00;6.97;;;11.50;99.90;;;;;;5023396;28;20045;-70
2022/12/24 08:12:01;;;;;;;37.63;6.82;;;11.50;99.90;;;;;;5023108;28;20655;-69
2022/12/24 08:14:27;;;;;;;34.17;6.78;;;11.60;99.90;;;;;;5026882;28;20021;-70
2022/12/24 08:16:52;;;;;;;35.38;7.10;;;11.60;99.90;;;;;;5021354;28;20034;-70
2022/12/24 08:19:18;;;;;;;36.90;7.13;;;11.60;99.90;;;;;;5024836;28;20386;-69
2022/12/24 08:21:43;;;;;;;33.63;6.68;;;11.50;99.90;;;;;;5020291;28;20029;-70
2022/12/24 08:24:09;;;;;;;38.95;6.80;;;11.60;99.90;;;;;;5021132;28;20021;-69
2022/12/24 08:26:35;;;;;;;35.97;6.78;;;11.60;99.90;;;;;;5025183;28;20033;-69
2022/12/24 08:29:01;;;;;;;36.72;6.50;;;11.70;99.90;;;;;;5024908;28;20464;-69
2022/12/24 08:31:27;;;;;;;32.90;7.13;;;11.70;99.90;;;;;;5020534;28;20033;-69
2022/12/24 08:33:52;;;;;;;39.65;6.88;;;11.70;99.90;;;;;;5025044;28;20017;-69
2022/12/24 08:36:18;;;;;;;43.00;7.90;;;11.70;99.90;;;;;;5028695;28;20064;-69
2022/12/24 08:38:44;;;;;;;49.75;8.15;;;11.70;99.90;;;;;;5021022;28;20101;-69
2022/12/24 08:41:09;;;;;;;37.58;7.97;;;11.70;99.90;;;;;;5024287;28;20033;-69
2022/12/24 08:43:35;;;;;;;37.58;6.28;;;11.70;99.90;;;;;;5017621;28;20108;-69
2022/12/24 08:46:03;;;;;;;36.90;6.88;;;11.70;99.90;;;;;;5031083;28;20029;-69
2022/12/24 08:48:29;;;;;;;40.97;8.02;;;11.80;99.90;;;;;;5024535;28;20065;-69
2022/12/24 08:50:55;;;;;;;30.17;6.25;;;11.80;99.90;;;;;;5028744;28;20080;-69
2022/12/24 08:53:20;;;;;;;39.10;6.80;;;11.70;99.90;;;;;;5029806;28;20025;-69
2022/12/24 08:55:47;;;;;;;38.28;7.63;;;11.70;99.90;;;;;;5031461;28;20500;-69
2022/12/24 08:58:13;;;;;;;39.03;7.30;;;11.80;99.90;;;;;;5029883;28;20037;-70
2022/12/24 09:00:38;;;;;;;42.33;6.65;;;11.80;99.90;;;;;;5022038;28;20021;-69
2022/12/24 09:03:04;;;;;;;42.50;7.00;;;11.80;99.90;;;;;;5032884;28;20049;-69
2022/12/24 09:05:30;;;;;;;48.08;6.90;;;11.80;99.90;;;;;;5029353;28;20037;-69
2022/12/24 09:07:55;;;;;;;48.00;7.80;;;11.80;99.90;;;;;;5030230;28;20025;-68
2022/12/24 09:10:22;;;;;;;46.40;7.70;;;11.80;99.90;;;;;;5034423;28;20044;-69
2022/12/24 09:12:47;;;;;;;47.42;8.45;;;11.80;99.90;;;;;;5027957;28;20078;-69
2022/12/24 09:15:13;;;;;;;33.22;7.38;;;11.80;99.90;;;;;;5032247;28;20112;-69
2022/12/24 09:17:39;;;;;;;36.65;7.15;;;11.90;99.90;;;;;;5030112;28;20422;-69
2022/12/24 09:20:05;;;;;;;43.95;9.18;;;11.90;99.90;;;;;;5033629;28;20029;-69
2022/12/24 09:22:38;;;;;;;42.75;7.47;;;11.90;99.90;;;;;;5065028;28;20108;-69
2022/12/24 09:25:05;;;;;;;43.55;8.90;;;11.90;99.90;;;;;;5031713;28;20033;-69
2022/12/24 09:27:31;;;;;;;39.22;7.55;;;11.80;99.90;;;;;;5029286;28;20112;-68
2022/12/24 09:29:56;;;;;;;38.95;8.30;;;11.80;99.90;;;;;;5024563;28;20116;-69
2022/12/24 09:32:22;;;;;;;43.78;7.90;;;11.90;99.90;;;;;;5030052;28;20496;-69
2022/12/24 09:34:47;;;;;;;40.65;7.40;;;11.90;99.90;;;;;;5027212;28;20033;-69
2022/12/24 09:37:13;;;;;;;38.15;7.97;;;11.90;99.90;;;;;;5026507;28;20014;-69
2022/12/24 09:39:39;;;;;;;42.00;8.90;;;11.90;99.90;;;;;;5021617;28;20033;-69
2022/12/24 09:42:30;;;;;;;32.50;6.95;;;12.00;99.90;;;;;;5023495;28;20036;-69
2022/12/24 09:45:21;;;;;;;39.05;7.70;;;12.00;99.90;;;;;;5027512;28;20034;-70
2022/12/24 09:47:58;;;;;;;40.65;6.63;;;12.00;99.90;;;;;;5031313;28;20041;-68
2022/12/24 09:50:24;;;;;;;41.08;6.95;;;12.00;99.90;;;;;;5035102;28;20045;-69
2022/12/24 09:52:52;;;;;;;45.88;6.57;;;12.00;99.90;;;;;;5031279;28;20033;-69
2022/12/24 09:55:32;;;;;;;36.38;7.57;;;12.00;99.90;;;;;;5032685;28;20026;-69
2022/12/24 09:57:59;;;;;;;43.80;8.30;;;12.00;99.90;;;;;;5017687;28;20429;-69
2022/12/24 10:00:28;;;;;;;42.85;8.05;;;12.00;99.90;;;;;;5024879;28;20030;-69
2022/12/24 10:02:54;;;;;;;43.45;7.43;;;12.00;99.90;;;;;;5029385;28;20530;-68
2022/12/24 10:05:35;;;;;;;49.90;8.00;;;12.10;99.90;;;;;;5023498;28;20029;-69
2022/12/24 10:08:41;;;;;;;41.53;7.70;;;12.00;99.90;;;;;;5027361;28;20037;-70
2022/12/24 10:11:28;;;;;;;43.85;8.30;;;12.00;99.90;;;;;;5028405;28;20034;-70
2022/12/24 10:14:25;;;;;;;49.03;7.75;;;12.00;99.90;;;;;;5028161;28;20029;-69
2022/12/24 10:17:12;;;;;;;38.40;7.30;;;12.00;99.90;;;;;;5025743;28;20034;-69
2022/12/24 10:20:03;;;;;;;41.17;7.18;;;12.10;99.90;;;;;;5026428;28;20045;-69
2022/12/24 10:22:54;;;;;;;50.42;8.80;;;12.10;99.90;;;;;;5015393;28;20033;-69
2022/12/24 10:25:31;;;;;;;42.65;7.53;;;12.20;99.90;;;;;;5027299;28;20029;-69
2022/12/24 10:28:00;;;;;;;41.78;7.80;;;12.20;99.90;;;;;;5032651;28;20025;-70
2022/12/24 10:30:25;;;;;;;40.40;7.93;;;12.20;99.90;;;;;;5022885;28;20397;-69
2022/12/24 10:32:52;;;;;;;44.83;8.40;;;12.20;99.90;;;;;;5026419;28;20535;-70
2022/12/24 10:35:31;;;;;;;51.60;8.20;;;12.20;99.90;;;;;;5024441;28;20021;-69
2022/12/24 10:37:57;;;;;;;42.50;8.40;;;12.20;99.90;;;;;;5029149;28;20180;-69
2022/12/24 10:40:44;;;;;;;35.72;7.13;;;12.20;99.90;;;;;;5018392;28;20105;-69
2022/12/24 10:43:17;;;;;;;40.97;6.82;;;12.30;99.90;;;;;;5027217;28;20543;-69
2022/12/24 10:45:47;;;;;;;37.40;7.40;;;12.40;99.90;;;;;;5022304;28;20076;-69
2022/12/24 10:48:31;;;;;;;33.28;7.35;;;12.50;99.90;;;;;;5024822;28;20033;-69
2022/12/24 10:51:13;;;;;;;46.92;8.18;;;12.60;99.90;;;;;;5024043;28;20029;-69
2022/12/24 10:53:53;;;;;;;31.45;6.70;;;12.60;99.90;;;;;;5019190;28;20415;-69
2022/12/24 10:56:20;;;;;;;39.20;7.10;;;12.60;99.90;;;;;;5024000;28;20057;-68
2022/12/24 10:58:52;;;;;;;42.47;7.57;;;12.60;99.90;;;;;;5027347;28;20113;-69
2022/12/24 11:01:18;;;;;;;41.60;7.00;;;12.50;99.90;;;;;;5026824;28;20022;-69
2022/12/24 11:03:44;;;;;;;42.78;7.35;;;12.60;99.90;;;;;;5027413;28;20404;-69
2022/12/24 11:06:20;;;;;;;37.75;7.13;;;12.70;99.90;;;;;;5025446;28;20026;-70
2022/12/24 11:08:46;;;;;;;35.58;6.82;;;12.70;99.90;;;;;;5026104;28;20084;-69
2022/12/24 11:11:13;;;;;;;33.80;7.03;;;12.60;99.90;;;;;;5022385;28;20039;-69
2022/12/24 11:13:42;;;;;;;35.80;8.05;;;12.70;99.90;;;;;;5023394;28;20022;-69
2022/12/24 11:16:11;;;;;;;44.70;7.88;;;12.70;99.90;;;;;;5022139;28;20429;-69
2022/12/24 11:18:45;;;;;;;27.60;6.35;;;12.80;99.90;;;;;;5026116;28;20033;-72
2022/12/24 11:21:17;;;;;;;31.58;7.18;;;12.90;99.90;;;;;;5022145;28;20033;-69
2022/12/24 11:23:50;;;;;;;35.72;7.40;;;12.90;99.90;;;;;;5022777;28;20054;-69
2022/12/24 11:26:21;;;;;;;32.90;6.93;;;12.80;99.90;;;;;;5026245;28;20739;-69
2022/12/24 11:29:06;;;;;;;38.28;7.63;;;12.90;99.90;;;;;;5025889;28;20067;-69
2022/12/24 11:31:34;;;;;;;47.88;8.90;;;12.80;99.90;;;;;;5030459;28;20064;-69
2022/12/24 11:34:15;;;;;;;37.97;7.60;;;12.90;99.90;;;;;;5023596;28;20017;-68
2022/12/24 11:36:41;;;;;;;41.92;8.57;;;12.90;99.90;;;;;;5030537;28;20029;-68
2022/12/24 11:39:21;;;;;;;33.20;7.00;;;12.90;99.90;;;;;;5031805;28;20033;-69
2022/12/24 11:41:49;;;;;;;44.60;7.78;;;13.00;99.90;;;;;;5029593;28;20053;-68
2022/12/24 11:44:26;;;;;;;34.40;7.53;;;12.90;99.90;;;;;;5026358;28;20506;-68
2022/12/24 11:46:55;;;;;;;31.00;7.55;;;13.00;99.90;;;;;;5055212;28;20038;-69
2022/12/24 11:49:24;;;;;;;28.33;7.03;;;13.10;99.90;;;;;;5026514;28;20044;-69
2022/12/24 11:52:08;;;;;;;45.13;9.70;;;13.10;99.90;;;;;;5021126;28;20502;-68
2022/12/24 11:54:42;;;;;;;28.95;7.50;;;13.10;99.90;;;;;;5031365;28;20407;-69
2022/12/24 11:57:09;;;;;;;35.17;7.38;;;13.10;99.90;;;;;;5025497;28;20486;-69
2022/12/24 11:59:43;;;;;;;30.95;7.78;;;13.00;99.90;;;;;;5016068;28;21490;-70
2022/12/24 12:02:30;;;;;;;36.28;6.70;;;13.00;99.90;;;;;;4999426;28;20032;-73
2022/12/24 12:05:06;;;;;;;33.90;6.78;;;13.10;99.90;;;;;;5024333;28;20083;-69
2022/12/24 12:07:35;;;;;;;34.45;7.00;;;13.10;99.90;;;;;;5024315;28;20063;-69
2022/12/24 12:10:24;;;;;;;34.95;7.22;;;13.10;99.90;;;;;;5022189;28;20112;-68
2022/12/24 12:12:58;;;;;;;36.20;6.63;;;13.10;99.90;;;;;;5027335;28;20906;-69
2022/12/24 12:15:49;;;;;;;23.40;6.20;;;13.10;99.90;;;;;;5025603;28;20041;-69
2022/12/24 12:18:20;;;;;;;24.50;6.30;;;13.10;99.90;;;;;;5004611;28;20044;-69
2022/12/24 12:21:05;;;;;;;30.63;6.25;;;13.10;99.90;;;;;;5024938;28;20071;-69
2022/12/24 12:23:48;;;;;;;34.65;7.78;;;13.00;99.90;;;;;;5025370;28;20072;-68
2022/12/24 12:26:23;;;;;;;26.95;6.88;;;13.00;99.90;;;;;;5020428;28;20408;-70
2022/12/24 12:28:55;;;;;;;28.92;7.07;;;13.00;99.90;;;;;;5022515;28;20033;-69
2022/12/24 12:31:43;;;;;;;31.27;6.55;;;13.10;99.90;;;;;;5016987;28;20432;-68
2022/12/24 12:34:23;;;;;;;30.80;6.85;;;13.20;99.90;;;;;;5021691;28;20025;-68
2022/12/24 12:37:07;;;;;;;30.70;6.75;;;13.20;99.90;;;;;;5025452;28;20033;-69
2022/12/24 12:39:35;;;;;;;27.75;7.05;;;13.20;99.90;;;;;;5020012;28;20030;-69
2022/12/24 12:42:07;;;;;;;33.20;6.95;;;13.10;99.90;;;;;;5022574;28;20036;-68
2022/12/24 12:44:48;;;;;;;29.10;6.05;;;13.00;99.90;;;;;;5023428;28;20056;-69
2022/12/24 12:47:40;;;;;;;38.55;8.95;;;12.90;99.90;;;;;;5022909;28;20025;-68
2022/12/24 12:50:08;;;;;;;27.70;6.22;;;13.00;99.90;;;;;;5016106;28;20569;-69
2022/12/24 12:53:03;;;;;;;34.42;6.18;;;12.90;99.90;;;;;;5020130;28;20033;-69
2022/12/24 12:55:55;;;;;;;28.50;8.07;;;12.90;99.90;;;;;;4995258;28;20096;-69
2022/12/24 12:58:59;;;;;;;34.97;6.83;;;12.90;99.90;;;;;;5019450;28;20045;-69